createdAt,value
2018-12-14T00:00:20.383Z,12.33
2018-12-14T00:02:52.107Z,12.30
2018-12-14T00:05:34.423Z,13.70
2018-12-14T00:08:15.831Z,14.03
2018-12-14T00:10:47.279Z,13.90
2018-12-14T00:13:19.122Z,13.23
2018-12-14T00:15:50.183Z,13.37
2018-12-14T00:18:21.221Z,13.13
2018-12-14T00:20:52.785Z,13.63
2018-12-14T00:23:22.428Z,12.83
2018-12-14T00:25:54.212Z,13.50
2018-12-14T00:28:25.129Z,13.57
2018-12-14T00:30:55.729Z,12.90
2018-12-14T00:33:36.101Z,12.93
2018-12-14T00:36:07.936Z,13.23
2018-12-14T00:38:39.687Z,12.53
2018-12-14T00:41:10.906Z,12.73
2018-12-14T00:43:42.467Z,12.23
2018-12-14T00:46:16.371Z,12.70
2018-12-14T00:48:48.484Z,12.93
2018-12-14T00:51:37.160Z,12.80
2018-12-14T00:54:16.948Z,13.33
2018-12-14T00:56:48.561Z,13.67
2018-12-14T00:59:28.976Z,13.77
2018-12-14T01:02:12.977Z,12.50
2018-12-14T01:04:42.035Z,14.30
2018-12-14T01:07:22.734Z,14.63
2018-12-14T01:09:54.090Z,14.40
2018-12-14T01:12:34.362Z,14.47
2018-12-14T01:15:25.325Z,15.30
2018-12-14T01:17:58.880Z,14.90
2018-12-14T01:20:29.938Z,14.20
2018-12-14T01:23:01.454Z,15.20
2018-12-14T01:25:35.418Z,13.50
2018-12-14T01:28:06.281Z,14.30
2018-12-14T01:30:50.601Z,14.33
2018-12-14T01:33:31.065Z,13.63
2018-12-14T01:36:00.724Z,13.63
2018-12-14T01:38:34.675Z,14.03
2018-12-14T01:41:05.534Z,13.37
2018-12-14T01:43:36.901Z,13.30
2018-12-14T01:46:19.290Z,13.23
2018-12-14T01:48:50.815Z,13.67
2018-12-14T01:51:24.397Z,13.63
2018-12-14T01:53:55.673Z,14.20
2018-12-14T01:56:25.350Z,14.50
2018-12-14T01:58:56.722Z,14.60
2018-12-14T02:01:29.941Z,14.10
2018-12-14T02:04:00.794Z,13.63
2018-12-14T02:06:32.468Z,13.83
2018-12-14T02:09:05.934Z,14.60
2018-12-14T02:14:40.043Z,14.20
2018-12-14T02:17:11.359Z,12.83
2018-12-14T02:19:51.687Z,13.60
2018-12-14T02:22:27.893Z,12.17
2018-12-14T02:25:01.105Z,13.03
2018-12-14T02:27:34.250Z,12.50
2018-12-14T02:30:16.924Z,12.70
2018-12-14T02:32:50.968Z,12.57
2018-12-14T02:35:22.140Z,13.00
2018-12-14T02:38:02.740Z,12.57
2018-12-14T02:40:32.013Z,12.57
2018-12-14T02:43:05.856Z,12.20
2018-12-14T02:45:45.930Z,11.60
2018-12-14T02:48:15.389Z,12.03
2018-12-14T02:50:47.073Z,12.77
2018-12-14T02:53:20.973Z,12.47
2018-12-14T02:55:54.260Z,11.80
2018-12-14T02:58:25.100Z,11.40
2018-12-14T03:00:56.482Z,10.90
2018-12-14T03:03:27.815Z,12.37
2018-12-14T03:06:17.948Z,11.03
2018-12-14T03:08:48.811Z,10.43
2018-12-14T03:11:20.469Z,10.47
2018-12-14T03:13:51.330Z,10.97
2018-12-14T03:16:25.066Z,11.00
2018-12-14T03:18:56.062Z,10.57
2018-12-14T03:21:27.784Z,10.70
2018-12-14T03:27:17.314Z,10.07
2018-12-14T03:29:48.032Z,10.00
2018-12-14T03:32:21.891Z,10.27
2018-12-14T03:35:01.816Z,9.40
2018-12-14T03:37:31.541Z,9.10
2018-12-14T03:40:11.544Z,9.50
2018-12-14T03:42:45.307Z,9.37
2018-12-14T03:45:18.698Z,9.03
2018-12-14T03:47:49.495Z,8.47
2018-12-14T03:50:19.109Z,8.70
2018-12-14T03:52:53.904Z,8.90
2018-12-14T03:55:24.934Z,8.77
2018-12-14T03:57:56.763Z,8.93
2018-12-14T04:00:30.754Z,8.60
2018-12-14T04:03:11.217Z,8.97
2018-12-14T04:08:38.156Z,8.77
2018-12-14T04:11:11.658Z,9.47
2018-12-14T04:13:42.890Z,9.33
2018-12-14T04:16:14.078Z,9.13
2018-12-14T04:18:43.454Z,9.03
2018-12-14T04:21:18.367Z,9.57
2018-12-14T04:23:49.094Z,8.93
2018-12-14T04:26:20.486Z,8.80
2018-12-14T04:29:00.382Z,8.13
2018-12-14T04:31:54.429Z,9.73
2018-12-14T04:34:34.978Z,8.43
2018-12-14T04:37:09.776Z,8.50
2018-12-14T04:39:40.846Z,9.13
2018-12-14T04:45:26.481Z,8.40
2018-12-14T04:47:57.181Z,9.30
2018-12-14T04:50:30.960Z,8.63
2018-12-14T04:53:01.919Z,9.20
2018-12-14T04:55:49.728Z,9.67
2018-12-14T04:58:20.603Z,9.43
2018-12-14T05:01:00.853Z,9.80
2018-12-14T05:03:40.919Z,9.13
2018-12-14T05:06:12.335Z,9.13
2018-12-14T05:08:43.160Z,8.83
2018-12-14T05:11:14.326Z,8.90
2018-12-14T05:13:45.889Z,8.97
2018-12-14T05:16:15.146Z,8.37
2018-12-14T05:19:02.976Z,8.57
2018-12-14T05:21:32.510Z,8.03
2018-12-14T05:24:06.873Z,8.57
2018-12-14T05:26:47.191Z,8.70
2018-12-14T05:29:26.824Z,8.00
2018-12-14T05:32:06.854Z,8.17
2018-12-14T05:34:46.850Z,8.63
2018-12-14T05:37:26.550Z,8.63
2018-12-14T05:40:06.191Z,9.60
2018-12-14T05:42:45.904Z,8.90
2018-12-14T05:45:25.551Z,8.57
2018-12-14T05:48:05.361Z,9.80
2018-12-14T05:50:46.302Z,8.90
2018-12-14T05:53:19.718Z,9.80
2018-12-14T05:55:51.005Z,9.30
2018-12-14T05:58:34.728Z,9.60
2018-12-14T06:01:05.762Z,9.57
2018-12-14T06:06:46.120Z,9.27
2018-12-14T06:09:26.303Z,9.10
2018-12-14T06:11:59.470Z,9.07
2018-12-14T06:14:38.932Z,9.83
2018-12-14T06:17:20.816Z,9.70
2018-12-14T06:20:07.310Z,9.63
2018-12-14T06:22:47.583Z,9.53
2018-12-14T06:28:09.337Z,9.10
2018-12-14T06:30:49.083Z,9.60
2018-12-14T06:33:20.103Z,10.13
2018-12-14T06:36:08.451Z,9.83
2018-12-14T06:38:46.273Z,10.10
2018-12-14T06:41:37.208Z,15.83
2018-12-14T06:44:17.434Z,33.97
2018-12-14T06:46:50.791Z,23.77
2018-12-14T06:49:22.125Z,15.17
2018-12-14T06:52:01.821Z,12.83
2018-12-14T06:54:32.667Z,10.50
2018-12-14T06:57:03.598Z,10.20
2018-12-14T06:59:34.349Z,9.67
2018-12-14T07:02:07.795Z,11.57
2018-12-14T07:04:37.781Z,11.10
2018-12-14T07:07:11.312Z,9.77
2018-12-14T07:09:51.726Z,9.67
2018-12-14T07:12:21.893Z,10.37
2018-12-14T07:15:02.294Z,10.87
2018-12-14T07:17:36.461Z,10.60
2018-12-14T07:20:17.224Z,11.23
2018-12-14T07:22:58.039Z,10.80
2018-12-14T07:25:28.815Z,11.07
2018-12-14T07:30:55.271Z,11.53
2018-12-14T07:33:35.082Z,12.20
2018-12-14T07:36:12.933Z,9.30
2018-12-14T07:41:53.190Z,9.33
2018-12-14T07:44:28.527Z,11.00
2018-12-14T07:47:11.747Z,9.73
2018-12-14T07:52:49.957Z,10.67
2018-12-14T07:55:19.530Z,10.60
2018-12-14T07:57:59.668Z,9.70
2018-12-14T08:00:41.546Z,10.03
2018-12-14T08:03:21.336Z,10.60
2018-12-14T08:06:01.205Z,9.80
2018-12-14T08:08:34.147Z,10.67
2018-12-14T08:11:08.524Z,10.00
2018-12-14T08:13:50.276Z,10.23
2018-12-14T08:16:20.986Z,9.67
2018-12-14T08:18:52.172Z,10.17
2018-12-14T08:21:23.873Z,10.30
2018-12-14T08:24:03.520Z,11.90
2018-12-14T08:26:37.330Z,10.47
2018-12-14T08:29:15.304Z,9.83
2018-12-14T08:31:52.669Z,10.30
2018-12-14T08:34:25.379Z,9.50
2018-12-14T08:36:56.340Z,10.33
2018-12-14T08:39:44.850Z,10.97
2018-12-14T08:42:24.920Z,9.47
2018-12-14T08:45:06.846Z,9.70
2018-12-14T08:50:43.049Z,9.90
2018-12-14T08:56:21.485Z,10.30
2018-12-14T08:58:52.995Z,10.03
2018-12-14T09:01:32.678Z,9.30
2018-12-14T09:04:03.703Z,9.03
2018-12-14T09:06:37.006Z,9.30
2018-12-14T09:09:27.578Z,10.23
2018-12-14T09:12:07.690Z,11.53
2018-12-14T09:14:48.042Z,11.43
2018-12-14T09:17:26.054Z,11.37
2018-12-14T09:42:57.421Z,9.40
2018-12-14T09:45:26.922Z,10.07
2018-12-14T09:47:57.661Z,10.80
2018-12-14T09:50:37.524Z,9.50
2018-12-14T09:53:13.240Z,9.97
2018-12-14T09:55:47.186Z,11.03
2018-12-14T09:58:27.421Z,11.83
2018-12-14T10:04:09.810Z,12.00
2018-12-14T10:06:40.831Z,11.63
2018-12-14T10:09:21.350Z,10.80
2018-12-14T10:11:55.177Z,11.40
2018-12-14T10:14:36.076Z,10.77
2018-12-14T10:17:16.804Z,12.00
2018-12-14T10:19:56.703Z,11.70
2018-12-14T10:22:30.200Z,12.83
2018-12-14T10:25:00.830Z,10.87
2018-12-14T10:27:40.988Z,11.73
2018-12-14T10:30:21.785Z,11.63
2018-12-14T10:33:02.774Z,11.03
2018-12-14T10:35:33.383Z,11.20
2018-12-14T10:38:04.506Z,11.67
2018-12-14T10:40:38.516Z,11.53
2018-12-14T10:43:12.463Z,10.83
2018-12-14T10:45:44.200Z,9.70
2018-12-14T10:48:18.281Z,9.90
2018-12-14T10:50:49.508Z,10.47
2018-12-14T10:53:19.366Z,11.77
2018-12-14T10:55:57.069Z,10.60
2018-12-14T10:58:28.126Z,9.50
2018-12-14T11:01:14.358Z,10.87
2018-12-14T11:03:54.354Z,10.80
2018-12-14T11:06:25.448Z,10.77
2018-12-14T11:09:14.220Z,11.03
2018-12-14T11:11:48.045Z,10.33
2018-12-14T11:14:21.539Z,15.20
2018-12-14T11:16:55.485Z,11.00
2018-12-14T11:19:35.800Z,13.33
2018-12-14T11:22:15.450Z,9.97
2018-12-14T11:24:55.221Z,10.93
2018-12-14T11:27:35.035Z,12.03
2018-12-14T11:30:08.480Z,10.07
2018-12-14T11:32:40.069Z,9.50
2018-12-14T11:35:13.410Z,9.37
2018-12-14T11:37:46.825Z,9.20
2018-12-14T11:40:24.836Z,9.17
2018-12-14T11:43:05.013Z,9.30
2018-12-14T11:45:38.222Z,8.73
2018-12-14T11:48:18.572Z,9.03
2018-12-14T11:50:58.179Z,9.73
2018-12-14T11:53:29.365Z,9.87
2018-12-14T11:56:00.848Z,9.90
2018-12-14T11:58:31.696Z,9.67
2018-12-14T12:01:05.725Z,10.03
2018-12-14T12:03:46.082Z,9.50
2018-12-14T12:06:26.134Z,9.67
2018-12-14T12:09:01.344Z,9.17
2018-12-14T12:11:30.671Z,10.10
2018-12-14T12:14:08.083Z,10.80
2018-12-14T12:16:41.865Z,10.20
2018-12-14T12:19:17.980Z,9.47
2018-12-14T12:21:57.501Z,9.60
2018-12-14T12:24:28.505Z,9.80
2018-12-14T12:27:03.098Z,10.33
2018-12-14T12:29:43.515Z,8.97
2018-12-14T12:32:30.303Z,9.80
2018-12-14T12:35:05.103Z,10.13
2018-12-14T12:37:39.487Z,10.57
2018-12-14T12:40:21.015Z,9.80
2018-12-14T12:42:55.635Z,10.67
2018-12-14T13:01:49.858Z,9.70
2018-12-14T13:04:23.436Z,10.83
2018-12-14T13:06:57.159Z,11.13
2018-12-14T13:09:31.017Z,10.83
2018-12-14T13:12:11.223Z,11.03
2018-12-14T13:14:51.842Z,11.40
2018-12-14T13:17:32.891Z,10.87
2018-12-14T13:20:12.418Z,11.47
2018-12-14T13:22:45.800Z,10.83
2018-12-14T13:25:17.265Z,10.80
2018-12-14T13:27:57.065Z,11.27
2018-12-14T13:30:36.964Z,11.47
2018-12-14T13:33:17.701Z,11.30
2018-12-14T13:35:49.172Z,10.70
2018-12-14T13:38:20.746Z,10.50
2018-12-14T13:41:08.935Z,10.83
2018-12-14T13:43:42.968Z,11.90
2018-12-14T13:46:16.630Z,10.30
2018-12-14T13:49:04.388Z,10.47
2018-12-14T13:51:44.694Z,12.30
2018-12-14T13:54:24.443Z,11.93
2018-12-14T13:56:55.302Z,12.23
2018-12-14T13:59:43.718Z,12.00
2018-12-14T14:02:18.446Z,11.97
2018-12-14T14:04:58.651Z,11.07
2018-12-14T14:07:38.494Z,12.67
2018-12-14T14:10:18.269Z,12.60
2018-12-14T14:25:04.901Z,13.30
2018-12-14T14:27:44.966Z,13.97
2018-12-14T14:30:24.494Z,12.97
2018-12-14T14:33:04.158Z,13.30
2018-12-14T14:35:50.604Z,13.63
2018-12-14T14:41:27.139Z,13.60
2018-12-14T14:47:03.791Z,13.57
2018-12-14T14:49:33.207Z,13.40
2018-12-14T14:52:21.476Z,14.27
2018-12-14T14:55:01.855Z,14.03
2018-12-14T14:57:41.666Z,12.97
2018-12-14T15:00:28.138Z,14.40
2018-12-14T15:05:54.288Z,14.00
2018-12-14T15:08:31.748Z,14.73
2018-12-14T15:11:12.148Z,13.60
2018-12-14T15:13:51.692Z,14.30
2018-12-14T15:16:22.506Z,14.87
2018-12-14T15:18:53.197Z,14.43
2018-12-14T15:21:33.124Z,14.97
2018-12-14T15:24:16.907Z,14.40
2018-12-14T15:26:47.497Z,14.10
2018-12-14T15:29:27.465Z,14.07
2018-12-14T15:32:03.434Z,14.40
2018-12-14T15:34:36.544Z,14.60
2018-12-14T15:37:07.897Z,15.03
2018-12-14T15:42:58.415Z,15.77
2018-12-14T15:45:28.041Z,15.53
2018-12-14T15:48:02.299Z,15.10
2018-12-14T15:53:45.292Z,16.00
2018-12-14T15:56:16.463Z,15.40
2018-12-14T15:58:56.823Z,16.00
2018-12-14T16:01:45.164Z,16.57
2018-12-14T16:07:25.962Z,16.00
2018-12-14T16:13:02.651Z,15.87
2018-12-14T16:15:53.552Z,16.33
2018-12-14T16:18:28.567Z,15.20
2018-12-14T16:20:57.575Z,16.37
2018-12-14T16:23:28.370Z,16.73
2018-12-14T16:35:06.113Z,14.47
2018-12-14T16:37:39.516Z,14.90
2018-12-14T16:40:09.016Z,13.40
2018-12-14T16:42:42.266Z,13.70
2018-12-14T16:45:26.417Z,14.33
2018-12-14T16:47:57.964Z,14.10
2018-12-14T16:50:31.749Z,14.43
2018-12-14T16:53:01.144Z,14.40
2018-12-14T16:55:32.010Z,15.03
2018-12-14T16:58:12.844Z,15.20
2018-12-14T17:00:55.139Z,13.90
2018-12-14T17:03:32.953Z,15.53
2018-12-14T17:06:21.571Z,15.13
2018-12-14T17:09:09.519Z,14.40
2018-12-14T17:11:43.102Z,14.37
2018-12-14T17:14:23.397Z,13.73
2018-12-14T17:17:03.756Z,14.83
2018-12-14T17:19:43.431Z,15.13
2018-12-14T17:38:14.669Z,15.60
2018-12-14T17:40:54.791Z,15.77
2018-12-14T17:43:41.399Z,15.43
2018-12-14T17:46:22.143Z,14.90
2018-12-14T17:51:58.285Z,16.27
2018-12-14T17:54:44.883Z,15.33
2018-12-14T17:57:25.226Z,16.30
2018-12-14T18:00:09.659Z,17.67
2018-12-14T18:02:50.395Z,16.87
2018-12-14T18:05:21.635Z,17.17
2018-12-14T18:07:54.810Z,17.80
2018-12-14T18:10:41.518Z,18.10
2018-12-14T18:22:36.297Z,18.13
2018-12-14T18:25:10.378Z,18.10
2018-12-14T18:27:50.384Z,16.67
2018-12-14T18:30:40.619Z,15.20
2018-12-14T18:33:12.711Z,15.40
2018-12-14T18:35:49.856Z,17.10
2018-12-14T18:38:24.879Z,17.73
2018-12-14T18:41:05.174Z,18.47
2018-12-14T18:43:38.631Z,18.33
2018-12-14T18:46:18.835Z,18.20
2018-12-14T18:48:56.298Z,18.13
2018-12-14T18:51:30.323Z,15.50
2018-12-14T18:54:08.125Z,16.90
2018-12-14T18:56:39.303Z,17.47
2018-12-14T18:59:16.816Z,18.53
2018-12-14T19:01:59.023Z,17.63
2018-12-14T19:04:36.542Z,16.90
2018-12-14T19:07:11.511Z,18.17
2018-12-14T19:10:01.119Z,17.30
2018-12-14T19:12:38.963Z,18.27
2018-12-14T19:15:13.971Z,17.27
2018-12-14T19:17:51.643Z,16.47
2018-12-14T19:20:25.372Z,16.90
2018-12-14T19:23:03.204Z,17.93
2018-12-14T19:25:50.664Z,17.17
2018-12-14T19:28:41.302Z,17.37
2018-12-14T19:37:11.648Z,16.40
2018-12-14T19:39:45.128Z,16.63
2018-12-14T19:42:22.223Z,17.60
2018-12-14T19:45:02.716Z,16.80
2018-12-14T19:47:32.014Z,16.23
2018-12-14T19:53:03.184Z,15.23
2018-12-14T19:55:42.892Z,16.27
2018-12-14T19:58:16.024Z,15.93
2018-12-14T20:00:47.386Z,16.47
2018-12-14T20:03:18.264Z,16.60
2018-12-14T20:05:54.700Z,16.57
2018-12-14T20:08:28.400Z,16.50
2018-12-14T20:11:02.422Z,17.07
2018-12-14T20:13:40.123Z,17.70
2018-12-14T20:16:19.924Z,17.57
2018-12-14T20:18:49.184Z,17.93
2018-12-14T20:21:26.302Z,18.20
2018-12-14T20:24:06.219Z,18.70
2018-12-14T20:26:43.579Z,17.73
2018-12-14T20:29:21.429Z,18.53
2018-12-14T20:35:01.702Z,19.23
2018-12-14T20:37:52.098Z,19.40
2018-12-14T20:40:42.766Z,18.13
2018-12-14T20:43:14.340Z,18.03
2018-12-14T20:45:51.047Z,16.77
2018-12-14T20:48:22.397Z,17.77
2018-12-14T20:50:59.985Z,17.33
2018-12-14T20:53:46.639Z,19.53
2018-12-14T20:56:26.783Z,17.27
2018-12-14T21:18:17.664Z,17.13
2018-12-14T21:21:01.112Z,17.87
2018-12-14T21:23:40.805Z,18.17
2018-12-14T21:26:09.952Z,18.03
2018-12-14T21:28:43.140Z,17.90
2018-12-14T21:31:24.256Z,17.73
2018-12-14T21:34:03.789Z,18.33
2018-12-14T21:36:34.671Z,18.43
2018-12-14T21:39:06.350Z,18.47
2018-12-14T21:41:39.653Z,18.93
2018-12-14T21:44:19.963Z,18.57
2018-12-14T21:46:51.089Z,17.87
2018-12-14T21:49:30.966Z,17.87
2018-12-14T21:52:19.163Z,17.20
2018-12-14T21:58:11.303Z,19.60
2018-12-14T22:00:49.341Z,20.03
2018-12-14T22:03:30.171Z,19.17
2018-12-14T22:06:03.586Z,20.43
2018-12-14T22:11:27.076Z,19.53
2018-12-14T22:13:58.144Z,18.37
2018-12-14T22:19:41.878Z,17.20
2018-12-14T22:22:28.583Z,17.40
2018-12-14T22:24:59.965Z,16.33
2018-12-14T22:27:50.163Z,17.40
2018-12-14T22:30:30.395Z,17.27
2018-12-14T22:33:01.344Z,16.23
2018-12-14T22:35:34.424Z,16.03
2018-12-14T22:41:04.707Z,16.13
2018-12-14T22:43:38.625Z,16.27
2018-12-14T22:46:26.199Z,15.77
2018-12-14T22:49:06.548Z,16.33
2018-12-14T22:51:46.210Z,17.00
2018-12-14T22:54:17.341Z,17.07
2018-12-14T22:59:57.360Z,15.40
2018-12-14T23:02:30.879Z,16.23
2018-12-14T23:05:02.374Z,15.73
2018-12-14T23:07:42.126Z,15.93
2018-12-14T23:13:08.269Z,15.60
2018-12-14T23:15:48.518Z,15.70
2018-12-14T23:18:34.952Z,15.23
2018-12-14T23:21:08.877Z,15.00
2018-12-14T23:23:40.206Z,14.50
2018-12-14T23:26:21.921Z,15.60
2018-12-14T23:28:53.139Z,15.27
2018-12-14T23:31:23.712Z,15.93
2018-12-14T23:34:04.340Z,15.70
2018-12-14T23:36:35.187Z,15.57
2018-12-14T23:42:24.210Z,14.93
2018-12-14T23:45:04.620Z,15.67
2018-12-14T23:47:37.949Z,15.03
2018-12-14T23:50:18.286Z,14.90
2018-12-14T23:52:51.437Z,14.80
2018-12-14T23:55:20.976Z,14.40
2018-12-14T23:57:55.050Z,12.83
